Time;durP1;ratioP1;P1;durP2;ratioP2;P2;SDS_P1;SDS_P2;PMS_P1;PMS_P2;Temp;Humidity;BMP_temperature;BMP_pressure;BME280_temperature;BME280_humidity;BME280_pressure;Samples;Min_cycle;Max_cycle;Signal;HPM_P1;HPM_P2
2021/04/22 00:01:52;;;;;;;9.50;6.43;;;12.30;52.60;;;;;;5154863;27;20151;-67
2021/04/22 00:04:18;;;;;;;8.93;5.10;;;12.30;52.60;;;;;;5144937;27;20031;-67
2021/04/22 00:06:46;;;;;;;7.65;5.28;;;12.30;52.40;;;;;;5135404;27;20020;-67
2021/04/22 00:09:12;;;;;;;10.00;6.75;;;12.20;52.20;;;;;;5132397;27;20030;-67
2021/04/22 00:11:38;;;;;;;12.57;6.68;;;12.20;53.00;;;;;;5132850;27;20028;-67
2021/04/22 00:14:06;;;;;;;11.90;6.38;;;12.20;53.00;;;;;;5133418;27;20062;-67
2021/04/22 00:16:33;;;;;;;10.02;7.07;;;12.20;53.10;;;;;;5133773;27;20023;-67
2021/04/22 00:19:00;;;;;;;10.10;6.22;;;12.10;53.10;;;;;;5146692;27;20073;-67
2021/04/22 00:21:25;;;;;;;9.27;6.28;;;12.10;53.20;;;;;;5133775;27;20027;-67
2021/04/22 00:23:51;;;;;;;11.63;6.18;;;12.10;53.40;;;;;;5133693;27;20507;-67
2021/04/22 00:26:17;;;;;;;13.35;6.68;;;12.10;53.50;;;;;;5133872;27;20090;-67
2021/04/22 00:28:43;;;;;;;12.15;7.05;;;12.00;53.60;;;;;;5148898;27;20125;-67
2021/04/22 00:31:09;;;;;;;12.15;6.43;;;12.00;53.80;;;;;;5154426;27;20531;-67
2021/04/22 00:33:35;;;;;;;9.43;5.70;;;12.00;53.70;;;;;;5146735;27;20058;-67
2021/04/22 00:36:01;;;;;;;6.95;5.18;;;12.00;53.40;;;;;;5133506;27;20037;-67
2021/04/22 00:38:27;;;;;;;8.63;5.47;;;12.00;53.00;;;;;;5126372;27;20455;-67
2021/04/22 00:40:53;;;;;;;6.03;4.35;;;11.90;52.80;;;;;;5112933;28;20373;-67
2021/04/22 00:43:20;;;;;;;7.45;5.00;;;11.90;52.60;;;;;;5113009;28;20047;-67
2021/04/22 00:45:47;;;;;;;6.22;4.60;;;11.90;52.60;;;;;;5112961;28;20415;-67
2021/04/22 00:48:15;;;;;;;6.82;5.00;;;11.80;52.40;;;;;;5132956;27;20050;-67
2021/04/22 00:50:42;;;;;;;7.68;5.53;;;11.80;52.60;;;;;;5152574;27;20038;-67
2021/04/22 00:53:09;;;;;;;8.80;5.68;;;11.70;52.90;;;;;;5126550;27;20059;-67
2021/04/22 00:55:36;;;;;;;7.97;5.93;;;11.70;53.10;;;;;;5112804;28;20384;-67
2021/04/22 00:58:03;;;;;;;5.90;4.68;;;11.70;53.30;;;;;;5129015;27;20079;-67
2021/04/22 01:00:32;;;;;;;8.07;5.95;;;11.70;53.00;;;;;;5153953;27;20011;-67
2021/04/22 01:02:58;;;;;;;8.20;5.35;;;11.60;53.00;;;;;;5151777;27;20025;-67
2021/04/22 01:05:33;;;;;;;10.60;5.00;;;11.60;53.10;;;;;;5131341;27;20111;-67
2021/04/22 01:07:59;;;;;;;9.40;5.97;;;11.60;53.50;;;;;;5132972;27;20019;-67
2021/04/22 01:10:25;;;;;;;9.38;6.00;;;11.60;53.90;;;;;;5132653;27;20027;-67
2021/04/22 01:12:51;;;;;;;6.55;4.70;;;11.50;53.70;;;;;;5132672;27;20029;-67
2021/04/22 01:15:23;;;;;;;7.65;4.95;;;11.60;53.50;;;;;;5151372;27;20031;-67
2021/04/22 01:17:50;;;;;;;7.22;5.57;;;11.50;53.30;;;;;;5153316;27;20114;-67
2021/04/22 01:20:23;;;;;;;7.47;5.32;;;11.50;53.30;;;;;;5151296;27;20023;-66
2021/04/22 01:22:54;;;;;;;11.13;5.28;;;11.50;53.30;;;;;;5151829;27;20146;-67
2021/04/22 01:25:26;;;;;;;7.00;5.35;;;11.40;53.20;;;;;;5132701;27;20025;-67
2021/04/22 01:27:52;;;;;;;8.30;5.50;;;11.40;53.50;;;;;;5132799;27;20030;-67
2021/04/22 01:30:29;;;;;;;9.52;6.10;;;11.40;53.50;;;;;;5137314;27;20023;-67
2021/04/22 01:32:55;;;;;;;9.38;6.32;;;11.40;53.90;;;;;;5151945;27;20083;-67
2021/04/22 01:35:28;;;;;;;9.05;6.20;;;11.30;54.10;;;;;;5130901;27;20098;-67
2021/04/22 01:37:54;;;;;;;9.07;5.72;;;11.30;54.20;;;;;;5139728;27;20491;-67
2021/04/22 01:40:21;;;;;;;18.60;5.97;;;11.30;54.40;;;;;;5112339;28;20073;-67
2021/04/22 01:42:46;;;;;;;21.48;14.27;;;11.30;54.30;;;;;;5125485;28;20023;-67
2021/04/22 01:45:13;;;;;;;15.02;10.27;;;11.20;54.30;;;;;;5134359;27;20015;-67
2021/04/22 01:47:40;;;;;;;11.10;7.88;;;11.20;54.40;;;;;;5147495;27;20087;-66
2021/04/22 01:50:09;;;;;;;9.68;6.85;;;11.20;54.80;;;;;;5157421;27;20072;-67
2021/04/22 01:52:37;;;;;;;11.23;6.22;;;11.20;55.10;;;;;;5157208;27;20487;-67
2021/04/22 01:55:05;;;;;;;7.60;5.53;;;11.10;54.70;;;;;;5134892;27;20047;-66
2021/04/22 01:57:30;;;;;;;8.73;6.03;;;11.20;54.50;;;;;;5131831;27;20079;-66
2021/04/22 01:59:56;;;;;;;10.48;5.50;;;11.10;54.40;;;;;;5115876;28;20487;-66
2021/04/22 02:02:22;;;;;;;10.02;5.75;;;11.10;54.40;;;;;;5115934;28;20031;-67
2021/04/22 02:04:48;;;;;;;6.40;5.03;;;11.10;54.30;;;;;;5132024;27;20102;-67
2021/04/22 02:07:14;;;;;;;9.05;6.07;;;11.00;54.20;;;;;;5137090;27;20383;-67
2021/04/22 02:09:39;;;;;;;7.88;5.18;;;11.00;54.20;;;;;;5136249;27;20019;-67
2021/04/22 02:12:06;;;;;;;7.65;4.93;;;11.00;54.20;;;;;;5136145;27;20046;-67
2021/04/22 02:14:32;;;;;;;9.43;5.10;;;11.00;54.20;;;;;;5135840;27;20023;-67
2021/04/22 02:16:58;;;;;;;6.00;4.40;;;11.00;54.30;;;;;;5136201;27;20034;-66
2021/04/22 02:19:24;;;;;;;7.18;5.30;;;11.00;54.20;;;;;;5134394;27;20035;-66
2021/04/22 02:21:49;;;;;;;9.07;5.97;;;11.00;54.50;;;;;;5135990;27;20026;-66
2021/04/22 02:24:16;;;;;;;10.98;6.30;;;11.00;54.60;;;;;;5135805;27;20492;-67
2021/04/22 02:26:42;;;;;;;10.57;7.30;;;10.90;54.70;;;;;;5143498;27;20037;-67
2021/04/22 02:29:08;;;;;;;8.95;6.07;;;10.90;55.20;;;;;;5155121;27;20417;-67
2021/04/22 02:31:34;;;;;;;9.18;6.80;;;10.90;55.50;;;;;;5156452;27;20031;-67
2021/04/22 02:34:00;;;;;;;11.48;5.90;;;11.00;55.80;;;;;;5146204;27;20038;-66
2021/04/22 02:36:26;;;;;;;6.63;4.85;;;10.90;55.90;;;;;;5140713;27;20030;-67
2021/04/22 02:38:51;;;;;;;8.70;5.68;;;11.00;55.60;;;;;;5134723;27;20024;-67
2021/04/22 02:41:17;;;;;;;9.18;6.20;;;11.00;55.60;;;;;;5114989;28;20016;-67
2021/04/22 02:43:43;;;;;;;12.93;7.22;;;11.00;55.60;;;;;;5114796;28;20349;-67
2021/04/22 02:46:09;;;;;;;8.20;5.82;;;11.00;55.70;;;;;;5120660;27;20433;-67
2021/04/22 02:48:34;;;;;;;9.23;5.68;;;11.00;55.70;;;;;;5156369;27;20019;-67
2021/04/22 02:51:00;;;;;;;7.43;5.60;;;11.00;55.40;;;;;;5128892;27;20048;-67
2021/04/22 02:53:27;;;;;;;7.40;5.28;;;11.00;55.20;;;;;;5123857;27;20031;-66
2021/04/22 02:55:53;;;;;;;7.90;5.93;;;11.00;55.00;;;;;;5116971;27;20570;-66
2021/04/22 02:58:19;;;;;;;8.20;6.28;;;11.00;55.20;;;;;;5114583;28;20028;-66
2021/04/22 03:00:47;;;;;;;8.52;6.07;;;11.00;55.40;;;;;;5114547;28;20477;-67
2021/04/22 03:03:12;;;;;;;7.53;5.57;;;11.00;55.70;;;;;;5129314;27;20015;-66
2021/04/22 03:05:39;;;;;;;11.23;6.95;;;11.00;55.50;;;;;;5135007;27;20199;-67
2021/04/22 03:08:06;;;;;;;11.27;6.88;;;10.90;55.70;;;;;;5135425;27;20079;-67
2021/04/22 03:10:33;;;;;;;7.32;5.50;;;10.90;55.70;;;;;;5135050;27;20099;-66
2021/04/22 03:12:59;;;;;;;5.47;4.57;;;10.90;55.60;;;;;;5134916;27;20015;-67
2021/04/22 03:15:25;;;;;;;9.55;6.38;;;10.90;55.50;;;;;;5134960;27;20383;-67
2021/04/22 03:17:52;;;;;;;9.07;6.45;;;10.90;55.90;;;;;;5134663;27;20020;-67
2021/04/22 03:20:20;;;;;;;9.48;7.07;;;10.90;56.10;;;;;;5134726;27;20026;-67
2021/04/22 03:22:46;;;;;;;11.95;6.93;;;10.90;56.40;;;;;;5133319;27;20030;-67
2021/04/22 03:25:14;;;;;;;15.25;7.57;;;10.90;56.50;;;;;;5134793;27;20072;-66
2021/04/22 03:27:40;;;;;;;9.05;6.93;;;10.90;56.60;;;;;;5134608;27;20023;-67
2021/04/22 03:30:09;;;;;;;10.52;6.35;;;10.90;56.60;;;;;;5142063;27;20058;-67
2021/04/22 03:32:36;;;;;;;8.13;5.35;;;10.90;56.60;;;;;;5153558;27;20106;-67
2021/04/22 03:35:03;;;;;;;8.40;6.20;;;10.90;56.30;;;;;;5136833;27;20023;-67
2021/04/22 03:37:30;;;;;;;12.95;6.72;;;10.80;56.10;;;;;;5134330;27;20050;-67
2021/04/22 03:39:55;;;;;;;9.93;5.88;;;10.80;56.10;;;;;;5132655;27;20019;-67
2021/04/22 03:42:21;;;;;;;11.55;6.63;;;10.80;55.90;;;;;;5134219;27;20354;-67
2021/04/22 03:44:47;;;;;;;23.90;7.60;;;10.80;55.80;;;;;;5133835;27;20054;-67
2021/04/22 03:47:14;;;;;;;7.65;6.20;;;10.80;56.10;;;;;;5145650;27;20030;-67
2021/04/22 03:49:40;;;;;;;11.35;5.95;;;10.70;56.10;;;;;;5152678;27;20023;-67
2021/04/22 03:52:07;;;;;;;13.30;7.22;;;10.70;55.90;;;;;;5133914;27;20050;-67
2021/04/22 03:54:33;;;;;;;8.52;6.53;;;10.70;56.00;;;;;;5126948;27;20069;-67
2021/04/22 03:56:59;;;;;;;9.32;6.60;;;10.60;56.10;;;;;;5130312;27;20027;-66
2021/04/22 03:59:25;;;;;;;11.00;6.75;;;10.60;56.10;;;;;;5133742;27;20057;-67
2021/04/22 04:01:51;;;;;;;10.52;6.10;;;10.60;56.20;;;;;;5133653;27;20464;-67
2021/04/22 04:04:17;;;;;;;8.88;6.43;;;10.50;56.30;;;;;;5133795;27;20047;-67
2021/04/22 04:06:43;;;;;;;7.97;6.03;;;10.50;56.40;;;;;;5133984;27;20476;-66
2021/04/22 04:09:08;;;;;;;8.93;6.35;;;10.50;56.40;;;;;;5133716;27;20031;-67
2021/04/22 04:11:34;;;;;;;11.65;7.65;;;10.40;56.50;;;;;;5133663;27;20019;-67
2021/04/22 04:14:00;;;;;;;12.07;7.97;;;10.30;57.10;;;;;;5133530;27;20026;-67
2021/04/22 04:16:25;;;;;;;12.10;8.05;;;10.40;57.30;;;;;;5133647;27;20703;-67
2021/04/22 04:18:51;;;;;;;10.95;7.85;;;10.30;57.90;;;;;;5133315;27;20027;-67
2021/04/22 04:21:17;;;;;;;14.15;8.52;;;10.30;58.20;;;;;;5133501;27;20019;-67
2021/04/22 04:23:43;;;;;;;13.40;8.30;;;10.30;58.30;;;;;;5133568;27;20151;-65
2021/04/22 04:26:09;;;;;;;12.75;8.40;;;10.30;58.40;;;;;;5133055;27;20050;-66
2021/04/22 04:28:34;;;;;;;11.50;8.00;;;10.30;58.20;;;;;;5133304;27;20388;-66
2021/04/22 04:31:00;;;;;;;11.77;8.32;;;10.30;58.40;;;;;;5133335;27;20499;-65
2021/04/22 04:33:26;;;;;;;15.25;9.15;;;10.30;58.50;;;;;;5133496;27;20404;-66
2021/04/22 04:35:52;;;;;;;15.73;8.40;;;10.20;58.50;;;;;;5133412;27;20027;-66
2021/04/22 04:38:18;;;;;;;15.85;7.97;;;10.20;58.40;;;;;;5128637;27;20035;-65
2021/04/22 04:40:43;;;;;;;9.52;7.03;;;10.30;58.10;;;;;;5112729;28;20034;-65
2021/04/22 04:43:09;;;;;;;10.98;7.57;;;10.30;58.50;;;;;;5112701;28;20031;-65
2021/04/22 04:45:35;;;;;;;12.73;8.68;;;10.30;57.90;;;;;;5120503;27;20408;-65
2021/04/22 04:48:01;;;;;;;11.57;7.85;;;10.30;57.90;;;;;;5112634;28;20053;-65
2021/04/22 04:50:26;;;;;;;9.02;6.95;;;10.30;57.90;;;;;;5127532;27;20023;-65
2021/04/22 04:52:52;;;;;;;11.77;6.78;;;10.30;57.90;;;;;;5153744;27;20435;-65
2021/04/22 04:55:18;;;;;;;11.90;7.43;;;10.30;57.90;;;;;;5152187;27;20026;-66
2021/04/22 04:57:44;;;;;;;11.32;7.45;;;10.30;57.90;;;;;;5114293;27;20023;-66
2021/04/22 05:00:12;;;;;;;10.90;7.45;;;10.40;57.90;;;;;;5126697;27;20472;-66
2021/04/22 05:02:38;;;;;;;12.05;6.40;;;10.40;57.90;;;;;;5133826;27;20380;-66
2021/04/22 05:05:04;;;;;;;9.07;6.13;;;10.40;57.90;;;;;;5133800;27;20019;-66
2021/04/22 05:07:31;;;;;;;12.43;6.75;;;10.40;57.80;;;;;;5133994;27;20019;-65
2021/04/22 05:09:57;;;;;;;14.85;7.90;;;10.50;57.80;;;;;;5133777;27;20487;-68
2021/04/22 05:12:23;;;;;;;10.75;7.63;;;10.50;57.90;;;;;;5133707;27;20023;-66
2021/04/22 05:14:52;;;;;;;10.60;7.05;;;10.60;58.00;;;;;;5133547;27;20345;-66
2021/04/22 05:17:18;;;;;;;10.85;6.80;;;10.60;58.00;;;;;;5133566;27;20049;-66
2021/04/22 05:19:45;;;;;;;13.20;8.43;;;10.70;57.90;;;;;;5132603;27;20035;-67
2021/04/22 05:22:11;;;;;;;10.80;7.70;;;10.70;58.00;;;;;;5133697;27;20042;-67
2021/04/22 05:24:37;;;;;;;10.18;7.18;;;10.80;58.00;;;;;;5133534;27;20026;-67
2021/04/22 05:27:03;;;;;;;11.73;7.47;;;10.80;58.00;;;;;;5133261;27;20020;-67
2021/04/22 05:29:29;;;;;;;10.13;6.95;;;10.90;58.10;;;;;;5154201;27;20581;-67
2021/04/22 05:31:55;;;;;;;12.07;8.02;;;11.00;58.10;;;;;;5154303;27;20054;-67
2021/04/22 05:34:20;;;;;;;15.73;7.55;;;11.00;58.20;;;;;;5154146;27;20467;-66
2021/04/22 05:36:46;;;;;;;12.07;7.90;;;11.10;58.20;;;;;;5153933;27;20387;-67
2021/04/22 05:39:12;;;;;;;17.17;7.97;;;11.20;58.20;;;;;;5154012;27;20067;-67
2021/04/22 05:41:38;;;;;;;10.55;7.88;;;11.30;58.20;;;;;;5153875;27;20023;-67
2021/04/22 05:44:04;;;;;;;16.17;9.00;;;11.40;58.00;;;;;;5153878;27;20034;-67
2021/04/22 05:46:30;;;;;;;16.08;9.60;;;11.50;57.90;;;;;;5153815;27;20029;-67
2021/04/22 05:48:56;;;;;;;12.88;8.90;;;11.50;57.80;;;;;;5142827;27;20031;-67
2021/04/22 05:51:22;;;;;;;11.82;8.80;;;11.60;57.60;;;;;;5132448;27;20043;-67
2021/04/22 05:53:48;;;;;;;15.98;7.82;;;11.60;57.50;;;;;;5133154;27;20440;-67
2021/04/22 05:56:14;;;;;;;12.63;8.10;;;11.70;57.50;;;;;;5132750;27;20031;-67
2021/04/22 05:58:40;;;;;;;14.60;8.75;;;11.80;57.50;;;;;;5118846;28;20118;-67
2021/04/22 06:01:06;;;;;;;15.15;9.32;;;11.90;57.30;;;;;;5111260;28;20045;-67
2021/04/22 06:03:32;;;;;;;11.88;8.57;;;11.90;57.10;;;;;;5112260;28;20049;-67
2021/04/22 06:05:58;;;;;;;12.57;8.77;;;12.00;57.00;;;;;;5115825;27;20077;-67
2021/04/22 06:08:23;;;;;;;10.98;8.82;;;12.10;56.90;;;;;;5131606;27;20038;-67
2021/04/22 06:10:49;;;;;;;11.50;8.40;;;12.20;56.90;;;;;;5132882;27;20428;-67
2021/04/22 06:13:15;;;;;;;11.60;8.25;;;12.30;56.80;;;;;;5132894;27;20030;-67
2021/04/22 06:15:41;;;;;;;12.10;8.07;;;12.40;56.60;;;;;;5132322;27;20059;-67
2021/04/22 06:18:08;;;;;;;11.27;7.85;;;12.60;56.60;;;;;;5132259;27;20098;-67
2021/04/22 06:20:34;;;;;;;14.45;7.97;;;12.80;56.60;;;;;;5132598;27;20384;-68
2021/04/22 06:23:00;;;;;;;11.30;7.78;;;12.90;56.30;;;;;;5132623;27;20015;-67
2021/04/22 06:25:26;;;;;;;11.20;8.50;;;13.10;56.10;;;;;;5132390;27;20483;-68
2021/04/22 06:27:58;;;;;;;11.20;7.90;;;13.30;55.90;;;;;;5114630;27;20024;-68
2021/04/22 06:30:24;;;;;;;10.13;7.90;;;13.40;55.60;;;;;;5113716;28;20028;-67
2021/04/22 06:32:50;;;;;;;11.95;8.55;;;13.50;55.40;;;;;;5116047;28;20101;-68
2021/04/22 06:35:16;;;;;;;11.85;7.90;;;13.70;55.00;;;;;;5116116;28;20023;-68
2021/04/22 06:37:42;;;;;;;12.95;7.97;;;13.80;54.60;;;;;;5115778;28;20034;-68
2021/04/22 06:40:18;;;;;;;14.90;8.27;;;14.00;54.50;;;;;;5115898;28;20052;-68
2021/04/22 06:42:44;;;;;;;11.45;7.85;;;14.10;54.20;;;;;;5115865;28;20061;-68
2021/04/22 06:45:12;;;;;;;10.98;7.65;;;14.20;54.00;;;;;;5115894;28;20027;-68
2021/04/22 06:47:38;;;;;;;8.73;6.57;;;14.40;53.70;;;;;;5143473;27;20061;-68
2021/04/22 06:50:06;;;;;;;11.18;7.78;;;14.50;53.60;;;;;;5141288;27;20123;-69
2021/04/22 06:52:32;;;;;;;9.90;6.95;;;14.70;53.30;;;;;;5136042;27;20480;-68
2021/04/22 06:54:58;;;;;;;13.45;7.85;;;14.80;53.20;;;;;;5136411;27;20114;-68
2021/04/22 06:57:24;;;;;;;13.82;8.52;;;14.90;52.40;;;;;;5123974;27;20382;-68
2021/04/22 06:59:50;;;;;;;16.05;8.48;;;15.00;52.20;;;;;;5114458;28;20136;-68
2021/04/22 07:02:15;;;;;;;10.48;8.20;;;15.10;51.80;;;;;;5115648;27;20027;-66
2021/04/22 07:04:41;;;;;;;12.40;8.98;;;15.20;51.40;;;;;;5136611;27;20079;-66
2021/04/22 07:07:08;;;;;;;13.20;8.93;;;15.20;51.30;;;;;;5136026;27;20023;-66
2021/04/22 07:09:35;;;;;;;10.23;7.85;;;15.30;51.00;;;;;;5136015;27;20034;-66
2021/04/22 07:12:02;;;;;;;12.70;8.25;;;15.40;50.80;;;;;;5135970;27;20015;-66
2021/04/22 07:14:29;;;;;;;12.00;8.48;;;15.50;50.70;;;;;;5135918;27;20019;-66
2021/04/22 07:16:54;;;;;;;11.07;8.95;;;15.60;50.30;;;;;;5135844;27;20038;-69
2021/04/22 07:19:20;;;;;;;11.45;8.35;;;15.70;50.40;;;;;;5135455;27;20023;-66
2021/04/22 07:21:46;;;;;;;9.80;7.30;;;15.80;49.70;;;;;;5135713;27;20027;-68
2021/04/22 07:24:12;;;;;;;13.90;8.45;;;15.90;49.90;;;;;;5135958;27;20027;-69
2021/04/22 07:26:38;;;;;;;11.70;7.45;;;16.00;49.60;;;;;;5135319;27;20046;-67
2021/04/22 07:29:04;;;;;;;11.45;7.85;;;16.10;50.20;;;;;;5135360;27;20050;-67
2021/04/22 07:31:30;;;;;;;11.40;8.50;;;16.30;49.00;;;;;;5135614;27;20050;-67
2021/04/22 07:33:56;;;;;;;11.00;8.02;;;16.30;48.60;;;;;;5135608;27;20055;-67
2021/04/22 07:36:22;;;;;;;12.10;8.85;;;16.40;48.40;;;;;;5134282;27;20431;-67
2021/04/22 07:38:49;;;;;;;11.00;7.45;;;16.40;48.30;;;;;;5144902;27;20034;-67
2021/04/22 07:41:15;;;;;;;10.88;8.30;;;16.40;48.40;;;;;;5155419;27;20089;-67
2021/04/22 07:43:41;;;;;;;14.10;8.63;;;16.40;48.00;;;;;;5155808;27;20026;-67
2021/04/22 07:46:08;;;;;;;12.63;8.93;;;16.40;47.90;;;;;;5156003;27;20467;-66
2021/04/22 07:48:34;;;;;;;12.75;9.18;;;16.40;47.80;;;;;;5155849;27;20050;-67
2021/04/22 07:51:00;;;;;;;12.60;8.82;;;16.40;47.70;;;;;;5144740;27;20392;-66
2021/04/22 07:53:27;;;;;;;13.35;8.95;;;16.40;48.60;;;;;;5135072;27;20472;-67
2021/04/22 07:55:53;;;;;;;13.40;9.38;;;16.50;47.90;;;;;;5134474;27;20379;-67
2021/04/22 07:58:19;;;;;;;13.93;9.43;;;16.50;47.90;;;;;;5134653;27;20106;-67
2021/04/22 08:00:47;;;;;;;13.32;9.68;;;16.60;47.90;;;;;;5133694;27;20130;-67
2021/04/22 08:03:14;;;;;;;12.65;9.20;;;16.60;47.60;;;;;;5134733;27;20015;-67
2021/04/22 08:05:40;;;;;;;13.13;9.45;;;16.60;47.40;;;;;;5134551;27;20039;-66
2021/04/22 08:08:09;;;;;;;13.05;9.23;;;16.70;47.90;;;;;;5135609;27;20023;-67
2021/04/22 08:10:39;;;;;;;14.07;9.35;;;16.70;47.70;;;;;;5134986;27;20023;-67
2021/04/22 08:13:05;;;;;;;11.43;8.55;;;16.80;47.90;;;;;;5134891;27;20034;-66
2021/04/22 08:15:33;;;;;;;14.48;9.02;;;16.90;48.00;;;;;;5145778;27;20122;-67
2021/04/22 08:17:59;;;;;;;14.77;10.00;;;17.10;47.70;;;;;;5154820;27;20050;-66
2021/04/22 08:20:25;;;;;;;12.85;10.30;;;17.20;47.20;;;;;;5153034;27;20168;-67
2021/04/22 08:22:53;;;;;;;15.73;10.35;;;17.30;47.00;;;;;;5145867;27;20464;-67
2021/04/22 08:25:26;;;;;;;15.82;9.07;;;17.30;46.70;;;;;;5134505;27;20038;-67
2021/04/22 08:27:53;;;;;;;12.95;8.98;;;17.30;46.60;;;;;;5124886;27;20392;-67
2021/04/22 08:30:29;;;;;;;15.07;9.20;;;17.30;46.70;;;;;;5134333;27;20038;-67
2021/04/22 08:32:56;;;;;;;11.48;8.88;;;17.40;46.70;;;;;;5127144;27;20353;-66
2021/04/22 08:35:23;;;;;;;13.90;9.73;;;17.40;46.70;;;;;;5113505;28;20104;-67
2021/04/22 08:37:49;;;;;;;22.25;9.43;;;17.50;46.80;;;;;;5113731;28;20024;-67
2021/04/22 08:40:16;;;;;;;16.45;9.68;;;17.50;46.40;;;;;;5126149;27;20472;-67
2021/04/22 08:42:43;;;;;;;12.77;9.43;;;17.50;46.20;;;;;;5129368;27;20415;-67
2021/04/22 08:45:14;;;;;;;13.30;9.65;;;17.50;46.30;;;;;;5133973;27;20019;-67
2021/04/22 08:47:41;;;;;;;13.32;10.73;;;17.50;46.30;;;;;;5132154;27;20421;-67
2021/04/22 08:50:14;;;;;;;12.18;9.30;;;17.60;46.20;;;;;;5112826;28;20019;-67
2021/04/22 08:52:39;;;;;;;15.20;9.38;;;17.60;46.10;;;;;;5112542;28;20459;-67
2021/04/22 08:55:07;;;;;;;12.40;9.75;;;17.60;45.90;;;;;;5131039;27;20095;-67
2021/04/22 08:57:33;;;;;;;16.15;9.05;;;17.70;46.00;;;;;;5132045;27;20030;-67
2021/04/22 08:59:59;;;;;;;13.80;9.90;;;17.80;45.60;;;;;;5127469;27;20027;-67
2021/04/22 09:02:25;;;;;;;13.90;9.73;;;17.90;45.10;;;;;;5113051;28;20062;-67
2021/04/22 09:04:51;;;;;;;13.75;7.85;;;17.90;45.00;;;;;;5111836;28;20016;-66
2021/04/22 09:07:16;;;;;;;11.75;8.77;;;18.10;45.50;;;;;;5113968;27;20016;-67
2021/04/22 09:09:43;;;;;;;11.20;8.73;;;18.20;45.30;;;;;;5130067;27;20160;-67
2021/04/22 09:12:21;;;;;;;12.80;8.82;;;18.40;44.80;;;;;;5118599;27;20035;-67
2021/04/22 09:14:53;;;;;;;12.98;8.70;;;18.60;44.20;;;;;;5130358;27;20045;-67
2021/04/22 09:17:21;;;;;;;13.23;9.02;;;18.70;44.10;;;;;;5128026;27;20051;-67
2021/04/22 09:19:47;;;;;;;15.07;10.07;;;18.90;43.40;;;;;;5129478;27;20429;-67
2021/04/22 09:22:13;;;;;;;15.02;10.30;;;19.00;42.80;;;;;;5133616;27;20063;-67
2021/04/22 09:24:39;;;;;;;13.75;9.25;;;19.00;42.60;;;;;;5129457;27;20011;-67
2021/04/22 09:27:11;;;;;;;17.88;10.45;;;19.00;42.90;;;;;;5131724;27;20023;-67
2021/04/22 09:29:43;;;;;;;12.18;8.80;;;19.10;42.80;;;;;;5123910;27;20023;-67
2021/04/22 09:32:24;;;;;;;12.82;10.10;;;19.30;42.60;;;;;;5147865;27;20026;-67
2021/04/22 09:34:53;;;;;;;14.55;9.27;;;19.40;42.40;;;;;;5153761;27;20026;-67
2021/04/22 09:37:21;;;;;;;19.88;11.02;;;19.70;41.90;;;;;;5153988;27;20015;-67
2021/04/22 09:39:48;;;;;;;11.75;9.18;;;19.90;41.20;;;;;;5153004;27;20499;-67
2021/04/22 09:42:17;;;;;;;15.93;8.88;;;20.10;40.70;;;;;;5134652;27;20023;-67
2021/04/22 09:44:50;;;;;;;10.20;8.90;;;20.20;40.50;;;;;;5113060;28;20023;-67
2021/04/22 09:47:20;;;;;;;12.23;8.35;;;20.40;39.90;;;;;;5128514;27;20412;-67
2021/04/22 09:49:55;;;;;;;15.13;9.65;;;20.60;39.80;;;;;;5121754;27;20039;-68
2021/04/22 09:52:21;;;;;;;12.38;9.80;;;20.80;39.40;;;;;;5115016;28;20046;-67
2021/04/22 09:54:50;;;;;;;19.23;10.50;;;21.00;38.80;;;;;;5131236;27;20035;-67
2021/04/22 09:57:43;;;;;;;15.30;10.27;;;21.10;38.10;;;;;;5127916;27;20023;-67
2021/04/22 10:00:38;;;;;;;19.48;11.15;;;21.30;38.90;;;;;;5119306;28;20043;-67
2021/04/22 10:03:10;;;;;;;11.68;8.52;;;21.40;37.90;;;;;;5088927;28;20127;-67
2021/04/22 10:05:39;;;;;;;17.42;11.02;;;21.50;37.40;;;;;;5073976;28;20489;-67
2021/04/22 10:08:10;;;;;;;15.13;9.90;;;21.50;37.60;;;;;;5092738;28;20042;-67
2021/04/22 10:10:37;;;;;;;51.55;12.05;;;21.40;39.70;;;;;;5092976;28;20093;-66
2021/04/22 10:13:06;;;;;;;22.42;11.40;;;21.10;43.60;;;;;;5092417;28;20036;-66
2021/04/22 10:15:32;;;;;;;15.77;11.10;;;20.80;51.00;;;;;;5096778;28;20110;-66
2021/04/22 10:18:04;;;;;;;13.40;11.13;;;20.30;51.40;;;;;;5091813;28;20028;-67
2021/04/22 10:20:35;;;;;;;16.55;12.73;;;19.80;52.40;;;;;;5091005;28;20040;-68
2021/04/22 10:23:03;;;;;;;13.90;10.55;;;19.30;52.60;;;;;;5090777;28;20436;-70
2021/04/22 10:25:35;;;;;;;16.30;12.48;;;19.10;54.70;;;;;;5092686;28;20034;-72
2021/04/22 10:28:05;;;;;;;17.60;12.13;;;18.90;55.20;;;;;;5055838;28;20077;-73
2021/04/22 10:30:31;;;;;;;15.40;11.82;;;18.70;54.90;;;;;;5092071;28;20085;-74
2021/04/22 10:32:58;;;;;;;16.13;10.60;;;18.60;54.50;;;;;;5081143;28;20071;-75
2021/04/22 10:35:29;;;;;;;17.42;12.10;;;18.70;55.80;;;;;;5091688;28;20497;-78
2021/04/22 10:37:55;;;;;;;15.88;10.98;;;18.80;53.30;;;;;;5091979;28;20040;-76
2021/04/22 10:40:25;;;;;;;12.85;9.90;;;18.80;50.80;;;;;;5134423;27;20082;-81
2021/04/22 10:42:56;;;;;;;12.63;9.60;;;18.80;49.40;;;;;;5125466;27;20015;-77
2021/04/22 10:45:22;;;;;;;14.55;9.45;;;18.70;48.30;;;;;;5146264;27;20019;-80
2021/04/22 10:47:48;;;;;;;12.27;8.02;;;18.70;48.50;;;;;;5136356;27;20047;-82
2021/04/22 10:50:19;;;;;;;14.35;7.90;;;18.50;48.90;;;;;;5134106;27;20020;-80
2021/04/22 10:52:50;;;;;;;11.13;8.05;;;18.50;51.10;;;;;;5115386;28;20024;-80
2021/04/22 10:55:20;;;;;;;12.23;8.38;;;18.60;52.40;;;;;;5131540;27;20135;-79
2021/04/22 10:57:46;;;;;;;12.65;8.73;;;18.60;49.10;;;;;;5134635;27;20023;-80
2021/04/22 11:00:15;;;;;;;11.45;8.40;;;18.60;48.20;;;;;;5136333;27;20015;-80
2021/04/22 11:02:52;;;;;;;10.63;8.52;;;18.60;47.60;;;;;;5153456;27;20110;-79
2021/04/22 11:05:19;;;;;;;12.35;8.32;;;18.60;47.60;;;;;;5155444;27;20046;-81
2021/04/22 11:07:58;;;;;;;11.32;8.32;;;18.60;48.20;;;;;;5118327;27;20108;-78
2021/04/22 11:10:46;;;;;;;11.20;8.00;;;18.60;48.70;;;;;;5114688;28;20031;-75
2021/04/22 11:13:17;;;;;;;12.32;8.23;;;18.70;49.50;;;;;;5114781;28;20092;-77
2021/04/22 11:15:52;;;;;;;13.13;7.57;;;18.80;50.00;;;;;;5133572;27;20170;-75
2021/04/22 11:18:18;;;;;;;14.48;8.70;;;19.10;51.50;;;;;;5131657;27;20184;-76
2021/04/22 11:20:44;;;;;;;9.77;7.32;;;19.40;50.70;;;;;;5124852;27;20019;-75
2021/04/22 11:23:19;;;;;;;15.77;9.38;;;19.60;50.10;;;;;;5140915;27;20015;-77
2021/04/22 11:25:54;;;;;;;28.20;8.43;;;19.90;48.90;;;;;;5141686;27;20027;-75
2021/04/22 11:28:34;;;;;;;9.10;7.55;;;20.00;48.20;;;;;;5135819;27;20019;-75
2021/04/22 11:31:12;;;;;;;11.05;7.32;;;20.20;48.60;;;;;;5115066;28;20456;-75
2021/04/22 11:33:39;;;;;;;13.95;9.40;;;20.30;50.70;;;;;;5114945;28;20024;-76
2021/04/22 11:36:13;;;;;;;10.73;8.38;;;20.40;50.70;;;;;;5115126;28;20023;-75
2021/04/22 11:38:54;;;;;;;11.65;7.88;;;20.60;49.10;;;;;;5122673;27;20027;-75
2021/04/22 11:41:22;;;;;;;16.23;7.85;;;20.70;47.50;;;;;;5132194;27;20379;-74
2021/04/22 11:43:58;;;;;;;14.93;9.52;;;20.70;46.70;;;;;;5155972;27;20436;-75
2021/04/22 11:46:34;;;;;;;13.00;9.80;;;20.60;45.50;;;;;;5154639;27;20377;-74
2021/04/22 11:49:00;;;;;;;19.17;12.43;;;20.50;45.20;;;;;;5151586;27;20353;-74
2021/04/22 11:51:38;;;;;;;14.13;11.40;;;20.50;44.30;;;;;;5133992;27;20054;-74
2021/04/22 11:54:19;;;;;;;12.75;10.13;;;20.40;44.50;;;;;;5139326;27;20372;-74
2021/04/22 11:57:03;;;;;;;17.13;12.43;;;20.30;45.10;;;;;;5135724;27;20392;-74
2021/04/22 11:59:30;;;;;;;16.10;12.45;;;20.30;44.60;;;;;;5134754;27;20492;-73
2021/04/22 12:02:05;;;;;;;15.13;11.75;;;20.20;44.80;;;;;;5135243;27;20031;-73
2021/04/22 12:04:49;;;;;;;18.75;14.02;;;20.20;45.10;;;;;;5135166;27;20019;-72
2021/04/22 12:07:20;;;;;;;20.67;13.70;;;20.10;45.60;;;;;;5153069;27;20030;-71
2021/04/22 12:09:48;;;;;;;16.35;13.23;;;20.20;44.30;;;;;;5139757;27;20050;-70
2021/04/22 12:12:26;;;;;;;22.15;15.73;;;20.20;44.60;;;;;;5134507;27;20023;-69
2021/04/22 12:14:57;;;;;;;16.95;12.55;;;20.20;43.60;;;;;;5141541;27;20083;-67
2021/04/22 12:17:32;;;;;;;20.42;14.48;;;20.30;43.70;;;;;;5137139;27;20023;-66
2021/04/22 12:20:00;;;;;;;21.90;16.42;;;20.30;43.60;;;;;;5134405;27;20403;-67
2021/04/22 12:22:39;;;;;;;23.48;16.17;;;20.30;40.00;;;;;;5143289;27;20357;-68
2021/04/22 12:25:20;;;;;;;28.35;16.98;;;20.20;39.10;;;;;;5134718;27;20031;-68
2021/04/22 12:27:50;;;;;;;29.90;17.17;;;20.00;36.80;;;;;;5120980;27;20019;-69
2021/04/22 12:30:18;;;;;;;20.42;15.32;;;20.00;38.20;;;;;;5123693;27;20016;-69
2021/04/22 12:33:10;;;;;;;22.42;16.23;;;20.00;38.50;;;;;;5137084;27;20019;-69
2021/04/22 12:35:38;;;;;;;23.00;14.90;;;19.90;38.20;;;;;;5134466;27;20042;-69
2021/04/22 12:38:33;;;;;;;21.92;14.73;;;19.90;38.10;;;;;;5132694;27;20023;-69
2021/04/22 12:41:07;;;;;;;22.77;15.52;;;20.10;39.30;;;;;;5128628;27;20504;-69
2021/04/22 12:43:35;;;;;;;22.63;16.38;;;20.20;38.20;;;;;;5115063;27;20027;-69